TimeEDT,TemperatureF,Dew PointF,Humidity,Sea Level PressureIn,VisibilityMPH,Wind Direction,Wind SpeedMPH,Gust SpeedMPH,PrecipitationIn,Events,Conditions,WindDirDegrees,DateUTC
12:53 AM,80.1,72.0,76,30.21,10.0,SW,3.5,-,N/A,,Partly Cloudy,220,2013-07-15 04:53:00
1:53 AM,79.0,71.1,77,30.20,10.0,Calm,Calm,-,N/A,,Mostly Cloudy,0,2013-07-15 05:53:00
2:53 AM,78.1,71.1,79,30.20,10.0,Calm,Calm,-,N/A,,Mostly Cloudy,0,2013-07-15 06:53:00
3:53 AM,75.9,71.1,85,30.21,10.0,Calm,Calm,-,N/A,,Mostly Cloudy,0,2013-07-15 07:53:00
4:53 AM,77.0,70.0,79,30.20,10.0,SW,3.5,-,N/A,,Partly Cloudy,220,2013-07-15 08:53:00
5:53 AM,77.0,70.0,79,30.21,10.0,Calm,Calm,-,N/A,,Mostly Cloudy,0,2013-07-15 09:53:00
6:53 AM,78.1,71.1,79,30.22,10.0,Calm,Calm,-,N/A,,Scattered Clouds,0,2013-07-15 10:53:00
7:53 AM,80.1,71.1,74,30.22,10.0,SW,5.8,-,N/A,,Mostly Cloudy,220,2013-07-15 11:53:00
8:53 AM,82.9,72.0,69,30.22,10.0,WSW,8.1,-,N/A,,Mostly Cloudy,240,2013-07-15 12:53:00
9:14 AM,82.4,71.6,70,30.23,10.0,SW,4.6,-,N/A,,Mostly Cloudy,230,2013-07-15 13:14:00
9:53 AM,84.9,72.0,65,30.21,10.0,Calm,Calm,-,N/A,,Overcast,0,2013-07-15 13:53:00
10:44 AM,86.0,73.4,66,30.22,10.0,Calm,Calm,-,N/A,,Mostly Cloudy,0,2013-07-15 14:44:00
10:53 AM,87.1,72.0,61,30.21,10.0,Calm,Calm,-,N/A,,Scattered Clouds,0,2013-07-15 14:53:00
11:53 AM,89.1,73.9,61,30.20,10.0,North,5.8,-,N/A,,Scattered Clouds,10,2013-07-15 15:53:00
12:53 PM,90.0,73.0,57,30.18,10.0,WNW,3.5,-,N/A,,Partly Cloudy,290,2013-07-15 16:53:00
1:53 PM,91.9,73.0,54,30.17,10.0,North,9.2,-,N/A,,Partly Cloudy,360,2013-07-15 17:53:00
2:53 PM,91.9,73.0,54,30.15,10.0,NNE,9.2,-,N/A,,Scattered Clouds,30,2013-07-15 18:53:00
3:53 PM,91.9,70.0,48,30.14,10.0,NNE,5.8,-,N/A,,Clear,20,2013-07-15 19:53:00
4:53 PM,91.9,70.0,48,30.13,10.0,NNE,5.8,-,N/A,,Clear,20,2013-07-15 20:53:00
5:53 PM,91.0,70.0,50,30.13,10.0,NNE,4.6,-,N/A,,Clear,30,2013-07-15 21:53:00
6:53 PM,90.0,70.0,52,30.12,10.0,Calm,Calm,-,N/A,,Clear,0,2013-07-15 22:53:00
7:53 PM,87.1,75.9,69,30.13,10.0,Calm,Calm,-,N/A,,Clear,0,2013-07-15 23:53:00
8:53 PM,82.0,73.9,76,30.13,10.0,Calm,Calm,-,N/A,,Clear,0,2013-07-16 00:53:00
9:53 PM,78.1,73.9,87,30.14,10.0,Calm,Calm,-,N/A,,Clear,0,2013-07-16 01:53:00
10:53 PM,75.9,73.0,91,30.15,10.0,Calm,Calm,-,N/A,,Clear,0,2013-07-16 02:53:00
11:53 PM,75.0,73.0,94,30.15,10.0,Calm,Calm,-,N/A,,Clear,0,2013-07-16 03:53:00